Search for airport 
image banner adimage banner adimage banner ad
image banner ad

IA11 - Too Short

Located in Indianola, United States

ICAO - IA11, IATA -

Data provided by Airmate  

General information

Coordinates: N41°17'38" W93°39'56"
Elevation is 980 feet MSL.
Magnetic variation is 03° East
View others Airports in Iowa

Operational data

Special qualification required
Current time UTC:
Current local time:
Weather at : KDSM - Des Moines Intl ( 27 km )
METAR: KDSM 181754Z 14010KT 10SM FEW120 BKN140 BKN170 OVC250 28/16 A2983 RMK AO2 LTG DSNT S SLP092 VIRGA CB DSNT SE-SW MOV E 60000 T02830161 10306 20239 51007
TAF: KDSM 181724Z 1818/1918 11008KT P6SM VCSH FEW080 BKN150 FM182100 14005KT P6SM SCT200 FM190200 12006KT P6SM VCTS SCT070CB BKN100 FM190700 20004KT P6SM BKN250
View NOTAMs / SUP AIP / TFR affecting this airport [VIEW]
Communications frequencies: [VIEW]

Runways:

RWY identifierQFULength (ft)Width (ft)SurfaceLDA (ft)
N100075GRASS
S100075GRASS

Airport contact information

Address: Indianola United States

Satellite view of IA11